Etusivu
METAR-TAF:

METAR-TAF

Lentoasemat :

Tena, Ecuador

Leveyspiiri: 01-03-35S, Pituuspiiri: 77-35-00W, korkeus merenpinnasta: 376 m

Tämänhetkinen sää

Tämä raportti tehtiin 27 minuuttia sitten, kello 17.00 UTC
Tuuli 2 kn lännestä/luoteesta
Lämpötila 27°C
Kosteus 84%
Ilmanpaine 1015 hPa
Näkyvyys 10 km tai enemmän
Hajanaisia pilviä 2300 ft:n korkeudessa
Hajonneita pilviä 10000 ft:n korkeudessa

METAR: SEJD 131700Z 30002KT 9999 SCT023 BKN100 27/24 Q1015 RMK A2999

Aika: 12:27 (17:27 UTC)


TAF: puuttuu

Säähavainnot ja -ennusteet yli 4000 lentoasemalta (METAR- ja TAF-raportit).

Käytössä olevat sääasemat on merkitty karttaan keltaisilla ja punaisilla pisteillä.

Aseta hiiri pisteen päälle nähdäksesi sääaseman nimen.

Klikkaa sitten nähdäksesi säähavainnot ja -ennusteet.

Kartan vaihtaminen: klikkaa mustalla rastilla varustettuja vihreitä pisteitä, niin voit zoomata sisään; viivalla varustettua vihreää pistettä, niin voit zoomata ulos tai vihreitä nuolia, niin pääset viereisille kartoille.


METAR-TAF: